createdAt,value
2023-03-01T00:01:08.924Z,12.85
2023-03-01T00:03:36.365Z,9.10
2023-03-01T00:06:04.914Z,10.00
2023-03-01T00:08:33.835Z,12.57
2023-03-01T00:11:15.166Z,13.23
2023-03-01T00:13:42.992Z,10.52
2023-03-01T00:16:14.080Z,14.18
2023-03-01T00:18:41.092Z,11.88
2023-03-01T00:21:07.939Z,16.13
2023-03-01T00:23:37.940Z,15.95
2023-03-01T00:26:08.543Z,9.38
2023-03-01T00:28:35.725Z,11.90
2023-03-01T00:31:06.275Z,11.48
2023-03-01T00:33:33.252Z,13.60
2023-03-01T00:36:00.725Z,14.00
2023-03-01T00:38:28.376Z,12.45
2023-03-01T00:40:55.052Z,17.95
2023-03-01T00:43:21.913Z,11.15
2023-03-01T00:45:48.517Z,12.23
2023-03-01T00:48:15.095Z,14.65
2023-03-01T00:50:41.671Z,14.85
2023-03-01T00:53:08.297Z,11.50
2023-03-01T00:55:34.902Z,8.52
2023-03-01T00:58:01.786Z,8.18
2023-03-01T01:00:29.403Z,10.38
2023-03-01T01:02:55.996Z,13.32
2023-03-01T01:05:22.851Z,13.38
2023-03-01T01:07:49.609Z,18.00
2023-03-01T01:10:18.002Z,11.90
2023-03-01T01:12:47.868Z,11.93
2023-03-01T01:15:17.507Z,12.43
2023-03-01T01:17:44.359Z,10.98
2023-03-01T01:20:11.679Z,19.63
2023-03-01T01:22:39.661Z,17.70
2023-03-01T01:25:06.558Z,17.42
2023-03-01T01:27:33.265Z,14.20
2023-03-01T01:29:59.849Z,11.85
2023-03-01T01:32:27.351Z,15.13
2023-03-01T01:34:54.135Z,11.57
2023-03-01T01:37:20.935Z,15.82
2023-03-01T01:39:47.533Z,15.48
2023-03-01T01:42:18.927Z,13.07
2023-03-01T01:44:49.015Z,13.50
2023-03-01T01:47:23.391Z,16.80
2023-03-01T01:49:53.972Z,12.68
2023-03-01T01:52:39.041Z,10.80
2023-03-01T01:55:15.909Z,13.40
2023-03-01T01:57:54.126Z,13.45
2023-03-01T02:00:26.992Z,14.10
2023-03-01T02:03:05.796Z,7.05
2023-03-01T02:05:55.249Z,17.95
2023-03-01T02:08:26.193Z,13.88
2023-03-01T02:10:53.788Z,16.23
2023-03-01T02:13:20.476Z,11.85
2023-03-01T02:15:47.222Z,19.17
2023-03-01T02:18:18.259Z,12.70
2023-03-01T02:20:53.803Z,10.85
2023-03-01T02:23:21.274Z,10.93
2023-03-01T02:25:57.457Z,11.13
2023-03-01T02:28:27.902Z,12.35
2023-03-01T02:31:13.305Z,11.70
2023-03-01T02:33:40.683Z,9.98
2023-03-01T02:36:29.561Z,9.10
2023-03-01T02:41:27.803Z,11.80
2023-03-01T02:46:24.167Z,13.55
2023-03-01T02:48:54.181Z,12.32
2023-03-01T02:51:35.997Z,12.48
2023-03-01T02:54:27.572Z,16.10
2023-03-01T02:56:54.430Z,12.15
2023-03-01T02:59:25.746Z,21.95
2023-03-01T03:01:52.347Z,12.70
2023-03-01T03:04:21.905Z,13.00
2023-03-01T03:06:50.816Z,14.73
2023-03-01T03:09:18.159Z,11.18
2023-03-01T03:11:45.086Z,14.60
2023-03-01T03:14:13.624Z,13.70
2023-03-01T03:16:50.793Z,11.68
2023-03-01T03:19:19.403Z,14.45
2023-03-01T03:21:46.862Z,22.88
2023-03-01T03:24:13.692Z,16.30
2023-03-01T03:26:40.290Z,15.35
2023-03-01T03:29:06.894Z,15.30
2023-03-01T03:31:34.714Z,18.02
2023-03-01T03:34:01.276Z,11.93
2023-03-01T03:36:28.023Z,16.13
2023-03-01T03:38:54.781Z,13.32
2023-03-01T03:41:21.446Z,12.25
2023-03-01T03:43:48.049Z,14.43
2023-03-01T03:46:14.786Z,13.90
2023-03-01T03:48:44.751Z,16.00
2023-03-01T03:51:13.310Z,15.25
2023-03-01T03:53:39.940Z,18.10
2023-03-01T03:56:07.100Z,14.85
2023-03-01T03:58:34.061Z,16.10
2023-03-01T04:01:01.840Z,12.95
2023-03-01T04:03:30.720Z,10.65
2023-03-01T04:05:59.434Z,11.77
2023-03-01T04:08:26.582Z,12.35
2023-03-01T04:10:57.709Z,15.85
2023-03-01T04:13:26.182Z,15.48
2023-03-01T04:15:54.328Z,14.57
2023-03-01T04:18:22.713Z,13.15
2023-03-01T04:20:49.919Z,16.55
2023-03-01T04:23:22.647Z,19.10
2023-03-01T04:25:55.380Z,12.45
2023-03-01T04:28:27.487Z,9.93
2023-03-01T04:30:55.753Z,12.77
2023-03-01T04:33:23.012Z,9.73
2023-03-01T04:35:53.078Z,9.60
2023-03-01T04:38:20.957Z,15.85
2023-03-01T04:40:47.621Z,14.13
2023-03-01T04:43:15.656Z,13.02
2023-03-01T04:45:42.788Z,11.40
2023-03-01T04:48:09.699Z,12.68
2023-03-01T04:50:36.355Z,12.48
2023-03-01T04:53:03.396Z,13.13
2023-03-01T04:55:30.329Z,19.88
2023-03-01T04:57:57.144Z,12.90
2023-03-01T05:00:24.550Z,15.80
2023-03-01T05:02:54.566Z,14.32
2023-03-01T05:05:26.606Z,16.33
2023-03-01T05:07:58.923Z,18.95
2023-03-01T05:10:27.012Z,14.60
2023-03-01T05:12:54.031Z,21.52
2023-03-01T05:15:22.743Z,15.68
2023-03-01T05:17:50.685Z,19.85
2023-03-01T05:20:17.636Z,16.38
2023-03-01T05:22:44.422Z,13.07
2023-03-01T05:25:11.276Z,12.80
2023-03-01T05:27:37.876Z,20.00
2023-03-01T05:30:14.326Z,19.42
2023-03-01T05:32:46.148Z,19.05
2023-03-01T05:35:14.738Z,18.77
2023-03-01T05:37:43.292Z,20.33
2023-03-01T05:40:18.667Z,19.40
2023-03-01T05:42:55.725Z,24.17
2023-03-01T05:45:24.112Z,18.95
2023-03-01T05:47:51.601Z,16.90
2023-03-01T05:50:21.706Z,12.68
2023-03-01T05:52:53.322Z,11.55
2023-03-01T05:55:22.004Z,19.63
2023-03-01T05:57:49.473Z,42.20
2023-03-01T06:00:17.942Z,12.77
2023-03-01T06:02:45.039Z,12.35
2023-03-01T06:05:13.825Z,18.88
2023-03-01T06:07:41.129Z,13.75
2023-03-01T06:10:09.257Z,13.45
2023-03-01T06:12:37.659Z,10.23
2023-03-01T06:15:06.140Z,17.38
2023-03-01T06:17:38.541Z,13.45
2023-03-01T06:20:07.856Z,20.98
2023-03-01T06:22:34.542Z,19.15
2023-03-01T06:25:01.251Z,11.75
2023-03-01T06:27:27.996Z,14.48
2023-03-01T06:29:54.599Z,14.40
2023-03-01T06:32:21.283Z,11.93
2023-03-01T06:34:48.024Z,21.30
2023-03-01T06:37:14.562Z,19.45
2023-03-01T06:39:41.415Z,22.27
2023-03-01T06:42:09.475Z,21.13
2023-03-01T06:44:36.108Z,18.30
2023-03-01T06:47:03.088Z,16.80
2023-03-01T06:49:29.824Z,23.70
2023-03-01T06:51:56.631Z,19.20
2023-03-01T06:54:23.886Z,16.02
2023-03-01T06:56:51.119Z,18.00
2023-03-01T06:59:18.701Z,23.48
2023-03-01T07:01:45.483Z,19.02
2023-03-01T07:04:14.026Z,21.83
2023-03-01T07:06:41.623Z,18.35
2023-03-01T07:09:08.291Z,23.45
2023-03-01T07:11:34.921Z,14.98
2023-03-01T07:14:01.511Z,26.55
2023-03-01T07:16:28.211Z,19.95
2023-03-01T07:18:55.180Z,17.48
2023-03-01T07:21:21.885Z,16.67
2023-03-01T07:23:50.088Z,29.83
2023-03-01T07:26:16.816Z,18.97
2023-03-01T07:28:43.385Z,19.42
2023-03-01T07:31:09.968Z,18.08
2023-03-01T07:33:36.556Z,20.45
2023-03-01T07:36:05.039Z,21.13
2023-03-01T07:38:32.311Z,20.80
2023-03-01T07:41:03.798Z,21.52
2023-03-01T07:43:31.132Z,25.33
2023-03-01T07:46:01.871Z,19.77
2023-03-01T07:48:29.730Z,17.67
2023-03-01T07:50:59.871Z,17.70
2023-03-01T07:53:26.791Z,21.30
2023-03-01T07:56:07.811Z,28.65
2023-03-01T07:58:43.249Z,24.80
2023-03-01T08:01:12.562Z,33.60
2023-03-01T08:03:39.665Z,22.38
2023-03-01T08:06:08.950Z,22.00
2023-03-01T08:08:36.741Z,24.55
2023-03-01T08:11:05.894Z,21.80
2023-03-01T08:16:12.065Z,25.63
2023-03-01T08:18:39.051Z,25.23
2023-03-01T08:21:10.577Z,24.48
2023-03-01T08:23:37.597Z,21.85
2023-03-01T08:26:09.645Z,28.20
2023-03-01T08:28:36.876Z,29.33
2023-03-01T08:31:33.356Z,20.05
2023-03-01T08:34:02.206Z,28.67
2023-03-01T08:36:31.853Z,21.45
2023-03-01T08:38:59.302Z,24.02
2023-03-01T08:41:26.578Z,23.52
2023-03-01T08:43:53.968Z,23.27
2023-03-01T08:46:20.634Z,28.60
2023-03-01T08:48:47.349Z,22.27
2023-03-01T08:51:19.779Z,20.05
2023-03-01T08:53:47.344Z,22.13
2023-03-01T08:56:15.130Z,24.88
2023-03-01T08:58:48.893Z,29.05
2023-03-01T09:01:18.614Z,22.63
2023-03-01T09:03:45.920Z,30.52
2023-03-01T09:06:12.879Z,23.38
2023-03-01T09:08:42.223Z,23.27
2023-03-01T09:11:11.020Z,29.08
2023-03-01T09:13:38.378Z,35.92
2023-03-01T09:16:07.196Z,35.05
2023-03-01T09:18:34.631Z,25.08
2023-03-01T09:21:08.097Z,29.45
2023-03-01T09:23:37.497Z,37.17
2023-03-01T09:26:04.517Z,29.55
2023-03-01T09:28:31.097Z,23.60
2023-03-01T09:31:01.483Z,23.80
2023-03-01T09:33:29.567Z,27.90
2023-03-01T09:36:00.409Z,24.50
2023-03-01T09:38:27.568Z,21.60
2023-03-01T09:40:54.563Z,27.30
2023-03-01T09:43:36.125Z,23.65
2023-03-01T09:46:06.652Z,24.70
2023-03-01T09:48:42.867Z,31.52
2023-03-01T09:51:18.386Z,28.08
2023-03-01T09:53:44.998Z,28.75
2023-03-01T09:56:35.272Z,21.85
2023-03-01T09:59:16.851Z,29.13
2023-03-01T10:02:01.971Z,26.75
2023-03-01T10:04:48.764Z,22.83
2023-03-01T10:07:22.664Z,22.50
2023-03-01T10:09:49.663Z,24.42
2023-03-01T10:12:27.811Z,23.83
2023-03-01T10:15:01.428Z,20.15
2023-03-01T10:17:53.840Z,25.67
2023-03-01T10:20:27.264Z,24.05
2023-03-01T10:22:56.319Z,25.98
2023-03-01T10:25:47.610Z,15.98
2023-03-01T10:28:26.375Z,21.23
2023-03-01T10:30:54.034Z,19.17
2023-03-01T10:33:37.862Z,23.23
2023-03-01T10:36:05.013Z,19.90
2023-03-01T10:38:47.776Z,22.50
2023-03-01T10:41:14.373Z,19.35
2023-03-01T10:43:48.456Z,20.27
2023-03-01T10:46:36.063Z,23.90
2023-03-01T10:49:21.430Z,17.55
2023-03-01T10:51:50.875Z,17.65
2023-03-01T10:54:23.143Z,23.55
2023-03-01T10:56:53.751Z,20.20
2023-03-01T10:59:35.250Z,12.07
2023-03-01T11:02:12.129Z,22.55
2023-03-01T11:04:59.817Z,19.83
2023-03-01T11:07:27.193Z,15.55
2023-03-01T11:09:53.971Z,14.35
2023-03-01T11:12:22.377Z,14.68
2023-03-01T11:14:55.054Z,17.92
2023-03-01T11:17:30.667Z,19.58
2023-03-01T11:20:13.590Z,15.93
2023-03-01T11:22:53.350Z,14.43
2023-03-01T11:25:25.493Z,16.33
2023-03-01T11:27:53.692Z,16.30
2023-03-01T11:30:26.432Z,19.70
2023-03-01T11:33:11.597Z,16.70
2023-03-01T11:36:05.216Z,13.88
2023-03-01T11:38:35.141Z,16.70
2023-03-01T11:41:11.238Z,22.00
2023-03-01T11:43:49.940Z,14.82
2023-03-01T11:46:38.415Z,14.98
2023-03-01T11:49:32.798Z,18.60
2023-03-01T11:52:40.304Z,22.27
2023-03-01T11:55:20.385Z,17.83
2023-03-01T11:57:55.895Z,27.70
2023-03-01T12:00:49.951Z,22.83
2023-03-01T12:03:41.465Z,22.13
2023-03-01T12:06:32.458Z,18.42
2023-03-01T12:09:33.043Z,17.55
2023-03-01T12:12:41.869Z,14.77
2023-03-01T12:15:29.791Z,11.95
2023-03-01T12:18:09.523Z,16.23
2023-03-01T12:20:51.970Z,8.02
2023-03-01T12:23:46.576Z,9.82
2023-03-01T12:26:15.881Z,12.95
2023-03-01T12:29:03.585Z,9.98
2023-03-01T12:31:42.400Z,10.52
2023-03-01T12:34:29.954Z,11.52
2023-03-01T12:37:06.474Z,8.32
2023-03-01T12:39:43.425Z,7.93
2023-03-01T12:42:28.261Z,10.52
2023-03-01T12:44:56.479Z,15.63
2023-03-01T12:47:50.129Z,10.47
2023-03-01T12:50:25.641Z,15.35
2023-03-01T12:52:59.040Z,13.15
2023-03-01T12:55:32.261Z,15.68
2023-03-01T12:58:01.538Z,15.15
2023-03-01T13:00:52.024Z,9.20
2023-03-01T13:03:37.079Z,10.75
2023-03-01T13:06:17.858Z,7.28
2023-03-01T13:08:54.163Z,8.73
2023-03-01T13:11:23.033Z,13.88
2023-03-01T13:13:52.507Z,9.10
2023-03-01T13:16:31.477Z,6.10
2023-03-01T13:19:24.517Z,10.90
2023-03-01T13:21:55.226Z,10.13
2023-03-01T13:24:38.624Z,6.20
2023-03-01T13:27:08.074Z,9.18
2023-03-01T13:29:56.246Z,12.30
2023-03-01T13:32:43.453Z,13.50
2023-03-01T13:35:20.438Z,15.38
2023-03-01T13:37:47.395Z,14.15
2023-03-01T13:40:17.672Z,9.70
2023-03-01T13:42:56.297Z,14.07
2023-03-01T13:45:56.261Z,9.27
2023-03-01T13:48:33.813Z,7.78
2023-03-01T13:51:04.167Z,13.27
2023-03-01T13:53:35.137Z,10.80
2023-03-01T13:56:37.195Z,12.15
2023-03-01T13:59:23.315Z,14.30
2023-03-01T14:01:56.354Z,14.75
2023-03-01T14:04:29.466Z,13.27
2023-03-01T14:07:19.635Z,7.82
2023-03-01T14:09:50.206Z,8.57
2023-03-01T14:12:52.206Z,11.73
2023-03-01T14:15:40.561Z,13.60
2023-03-01T14:18:27.996Z,11.45
2023-03-01T14:20:54.631Z,8.88
2023-03-01T14:23:23.962Z,9.50
2023-03-01T14:25:52.222Z,9.57
2023-03-01T14:28:20.833Z,12.57
2023-03-01T14:30:50.419Z,21.05
2023-03-01T14:33:20.726Z,10.15
2023-03-01T14:36:02.193Z,9.45
2023-03-01T14:38:39.281Z,9.93
2023-03-01T14:41:12.362Z,9.90
2023-03-01T14:43:42.306Z,12.75
2023-03-01T14:46:22.249Z,10.50
2023-03-01T14:48:54.041Z,7.35
2023-03-01T14:51:20.913Z,8.40
2023-03-01T14:53:51.214Z,6.47
2023-03-01T14:56:18.887Z,17.27
2023-03-01T14:58:45.622Z,10.68
2023-03-01T15:01:16.117Z,10.90
2023-03-01T15:03:44.813Z,10.40
2023-03-01T15:06:15.332Z,12.00
2023-03-01T15:08:51.730Z,12.32
2023-03-01T15:11:23.892Z,12.18
2023-03-01T15:13:50.661Z,14.50
2023-03-01T15:16:22.539Z,11.10
2023-03-01T15:18:56.098Z,12.70
2023-03-01T15:21:28.090Z,13.70
2023-03-01T15:23:58.512Z,12.75
2023-03-01T15:26:30.008Z,17.40
2023-03-01T15:28:59.169Z,14.55
2023-03-01T15:31:36.317Z,14.50
2023-03-01T15:34:30.936Z,18.00
2023-03-01T15:37:01.028Z,24.27
2023-03-01T15:39:53.671Z,10.40
2023-03-01T15:42:26.398Z,13.40
2023-03-01T15:45:10.173Z,11.85
2023-03-01T15:47:39.966Z,19.77
2023-03-01T15:50:17.205Z,9.65
2023-03-01T15:52:44.168Z,13.30
2023-03-01T15:55:24.389Z,15.10
2023-03-01T15:57:59.815Z,12.95
2023-03-01T16:00:26.463Z,10.48
2023-03-01T16:02:53.206Z,11.10
2023-03-01T16:05:24.597Z,10.63
2023-03-01T16:07:52.666Z,11.35
2023-03-01T16:59:46.759Z,22.02
2023-03-01T17:02:15.779Z,18.75
2023-03-01T17:04:42.318Z,15.27
2023-03-01T17:07:08.860Z,18.17
2023-03-01T17:09:37.668Z,17.95
2023-03-01T17:12:05.525Z,19.88
2023-03-01T17:14:32.160Z,18.65
2023-03-01T17:17:00.912Z,12.23
2023-03-01T17:19:27.674Z,9.65
2023-03-01T17:21:54.278Z,10.00
2023-03-01T17:24:20.855Z,10.23
2023-03-01T17:26:47.581Z,9.48
2023-03-01T17:29:14.167Z,11.05
2023-03-01T17:31:40.826Z,7.40
2023-03-01T17:34:08.151Z,10.32
2023-03-01T17:36:41.711Z,8.80
2023-03-01T17:39:08.244Z,11.57
2023-03-01T17:41:34.878Z,12.73
2023-03-01T17:44:01.713Z,12.27
2023-03-01T17:46:28.768Z,10.10
2023-03-01T17:48:55.537Z,12.35
2023-03-01T17:51:22.131Z,8.32
2023-03-01T17:53:48.633Z,8.68
2023-03-01T17:56:16.222Z,6.90
2023-03-01T17:58:42.787Z,9.32
2023-03-01T18:01:18.660Z,8.23
2023-03-01T18:03:47.568Z,8.20
2023-03-01T18:06:23.544Z,18.75
2023-03-01T18:08:50.771Z,5.85
2023-03-01T18:11:18.954Z,9.60
2023-03-01T18:13:45.899Z,9.57
2023-03-01T18:16:17.574Z,7.38
2023-03-01T18:18:47.218Z,11.52
2023-03-01T18:21:14.690Z,9.15
2023-03-01T18:23:42.019Z,7.13
2023-03-01T18:26:11.586Z,8.55
2023-03-01T18:28:42.179Z,7.28
2023-03-01T18:31:13.147Z,9.25
2023-03-01T18:33:40.968Z,9.70
2023-03-01T18:36:18.057Z,10.50
2023-03-01T18:38:44.888Z,11.13
2023-03-01T18:41:11.529Z,5.75
2023-03-01T18:43:38.161Z,6.63
2023-03-01T18:46:05.369Z,6.95
2023-03-01T18:48:32.152Z,8.73
2023-03-01T18:51:06.807Z,6.88
2023-03-01T18:53:33.373Z,8.38
2023-03-01T18:56:01.272Z,8.05
2023-03-01T18:58:28.273Z,8.07
2023-03-01T19:00:54.772Z,8.98
2023-03-01T19:03:21.370Z,7.88
2023-03-01T19:05:47.945Z,9.43
2023-03-01T19:08:14.550Z,11.63
2023-03-01T19:10:41.201Z,10.25
2023-03-01T19:13:07.820Z,11.48
2023-03-01T19:15:36.588Z,7.03
2023-03-01T19:18:05.541Z,6.70
2023-03-01T19:20:32.100Z,8.30
2023-03-01T19:22:58.585Z,9.60
2023-03-01T19:25:25.160Z,11.80
2023-03-01T19:27:52.796Z,8.50
2023-03-01T19:30:19.440Z,7.05
2023-03-01T19:32:45.996Z,7.10
2023-03-01T19:35:12.554Z,9.80
2023-03-01T19:37:42.857Z,6.25
2023-03-01T19:40:10.170Z,9.15
2023-03-01T19:42:36.693Z,7.70
2023-03-01T19:45:03.842Z,7.82
2023-03-01T19:47:34.765Z,6.75
2023-03-01T19:50:01.281Z,6.57
2023-03-01T19:52:30.534Z,5.55
2023-03-01T19:55:09.040Z,8.52
2023-03-01T19:57:36.451Z,6.55
2023-03-01T20:00:04.299Z,6.68
2023-03-01T20:02:31.892Z,6.10
2023-03-01T20:04:58.483Z,5.28
2023-03-01T20:07:25.348Z,6.93
2023-03-01T20:09:58.070Z,5.57
2023-03-01T20:12:24.929Z,6.00
2023-03-01T20:14:56.981Z,4.38
2023-03-01T20:17:26.444Z,7.10
2023-03-01T20:19:53.019Z,5.72
2023-03-01T20:22:19.794Z,5.80
2023-03-01T20:24:46.355Z,6.93
2023-03-01T20:27:12.897Z,5.82
2023-03-01T20:29:39.578Z,8.82
2023-03-01T20:32:06.276Z,11.82
2023-03-01T20:34:33.211Z,8.05
2023-03-01T20:37:02.944Z,8.43
2023-03-01T20:39:29.861Z,28.58
2023-03-01T20:41:56.516Z,2.53
2023-03-01T20:44:23.012Z,7.30
2023-03-01T20:46:50.842Z,4.93
2023-03-01T20:49:19.024Z,6.47
2023-03-01T20:51:45.584Z,6.20
2023-03-01T20:54:17.924Z,5.97
2023-03-01T20:56:44.585Z,4.93
2023-03-01T20:59:13.039Z,4.75
2023-03-01T21:01:40.163Z,4.95
2023-03-01T21:04:07.539Z,4.78
2023-03-01T21:06:34.831Z,3.47
2023-03-01T21:09:03.391Z,4.70
2023-03-01T21:11:33.206Z,5.23
2023-03-01T21:13:59.874Z,4.70
2023-03-01T21:16:27.058Z,7.03
2023-03-01T21:18:56.589Z,5.53
2023-03-01T21:21:24.060Z,5.35
2023-03-01T21:23:51.281Z,6.30
2023-03-01T21:26:20.726Z,8.07
2023-03-01T21:28:48.507Z,5.47
2023-03-01T21:31:22.463Z,6.95
2023-03-01T21:33:52.143Z,5.93
2023-03-01T21:36:19.744Z,8.02
2023-03-01T21:38:47.902Z,5.00
2023-03-01T21:41:26.705Z,7.88
2023-03-01T21:43:57.515Z,6.40
2023-03-01T21:46:25.755Z,4.68
2023-03-01T21:48:53.665Z,6.15
2023-03-01T21:51:21.762Z,5.25
2023-03-01T21:53:48.440Z,4.93
2023-03-01T21:56:26.996Z,4.18
2023-03-01T21:58:54.491Z,6.20
2023-03-01T22:01:30.134Z,7.20
2023-03-01T22:03:58.228Z,6.18
2023-03-01T22:06:29.532Z,8.57
2023-03-01T22:09:01.646Z,8.63
2023-03-01T22:11:28.416Z,8.02
2023-03-01T22:13:56.333Z,7.30
2023-03-01T22:16:26.227Z,7.25
2023-03-01T22:18:53.632Z,6.63
2023-03-01T22:21:21.633Z,8.00
2023-03-01T22:23:48.348Z,6.10
2023-03-01T22:26:25.403Z,6.03
2023-03-01T22:28:52.974Z,8.07
2023-03-01T22:31:19.742Z,7.88
2023-03-01T22:33:46.458Z,5.43
2023-03-01T22:36:13.314Z,9.25
2023-03-01T22:38:39.939Z,7.30
2023-03-01T22:41:08.689Z,5.50
2023-03-01T22:43:36.254Z,5.57
2023-03-01T22:46:11.904Z,5.53
2023-03-01T22:48:38.604Z,5.88
2023-03-01T22:51:05.583Z,6.35
2023-03-01T22:53:32.224Z,6.57
2023-03-01T22:55:59.739Z,6.13
2023-03-01T22:58:26.351Z,5.65
2023-03-01T23:00:52.907Z,9.27
2023-03-01T23:03:19.621Z,7.30
2023-03-01T23:05:46.318Z,6.65
2023-03-01T23:08:13.452Z,6.95
2023-03-01T23:10:42.358Z,5.93
2023-03-01T23:13:08.935Z,4.55
2023-03-01T23:15:35.698Z,4.75
2023-03-01T23:18:02.626Z,6.40
2023-03-01T23:20:29.218Z,5.35
2023-03-01T23:23:01.472Z,4.07
2023-03-01T23:25:28.598Z,6.40
2023-03-01T23:27:55.701Z,5.53
2023-03-01T23:30:22.524Z,4.88
2023-03-01T23:32:49.297Z,5.07
2023-03-01T23:35:16.031Z,4.15
2023-03-01T23:37:42.663Z,7.63
2023-03-01T23:40:10.319Z,4.82
2023-03-01T23:42:36.938Z,5.65
2023-03-01T23:45:03.604Z,5.53
2023-03-01T23:47:30.194Z,4.93
2023-03-01T23:49:57.444Z,4.28
2023-03-01T23:52:24.524Z,8.23
2023-03-01T23:54:51.880Z,6.95
2023-03-01T23:57:19.096Z,5.60
2023-03-01T23:59:45.888Z,4.45
